CheckWX is a tool to help pilots better visualize weather data.  It is not intended as a substitute for an official pre-flight weather briefing.

18:05:33 UTC

KP68 METAR
Eureka Airport
Nevada, USA
Current

1 hour ago

KP68 241653Z AUTO 00000KT 16/04 A3018 RMK AO1 SLP175 T01560044
Observed
Apr-24 @ 16:53 UTC
Visibility
Temperature
16°C / 61°F
Dewpoint
C / 39°F
Humidity
45%
Altimeter
30.18" Hg
Pressure
1022.02 hPa
Previous

2 hours ago

KP68 241553Z AUTO 00000KT 14/05 A3019 RMK AO1 SLP171 T01390050
Observed
Apr-24 @ 15:53 UTC
Visibility
Temperature
14°C / 57°F
Dewpoint
C / 41°F
Humidity
55%
Altimeter
30.19" Hg
Pressure
1022.32 hPa
Previous

3 hours ago

KP68 241453Z AUTO 22004KT 10/04 A3019 RMK AO1 SLP179 T01000044 51007
Observed
Apr-24 @ 14:53 UTC
Wind
  • 220° at 4 KTS
Visibility
Temperature
10°C / 50°F
Dewpoint
C / 39°F
Humidity
67%
Altimeter
30.19" Hg
Pressure
1022.32 hPa